CheckWX is a tool to help pilots better visualize weather data.  It is not intended as a substitute for an official pre-flight weather briefing.

07:24:45 UTC

KRCR METAR
Fulton County Airport
Rochester, Indiana, USA
Current

30 mins ago

KRCR 210655Z AUTO 00000KT 10SM SCT065 SCT080 23/20 A3015 RMK AO2
Observed
Sep-21 @ 06:55 UTC
Visibility
10 SM
Flight Rules
VFR
Cloud Levels
  • Scattered at 6,500' AGL
  • Scattered at 8,000' AGL
Temperature
23°C / 73°F
Dewpoint
20°C / 68°F
Humidity
83%
Altimeter
30.15" Hg
Pressure
1021.02 hPa
Previous

50 mins ago

KRCR 210635Z AUTO 00000KT 10SM SCT065 SCT080 21/19 A3015 RMK AO2
Observed
Sep-21 @ 06:35 UTC
Visibility
10 SM
Flight Rules
VFR
Cloud Levels
  • Scattered at 6,500' AGL
  • Scattered at 8,000' AGL
Temperature
21°C / 70°F
Dewpoint
19°C / 66°F
Humidity
88%
Altimeter
30.15" Hg
Pressure
1021.02 hPa
Previous

1 hour ago

KRCR 210615Z AUTO 00000KT 10SM SCT070 21/19 A3015 RMK AO2
Observed
Sep-21 @ 06:15 UTC
Visibility
10 SM
Flight Rules
VFR
Cloud Levels
  • Scattered at 7,000' AGL
Temperature
21°C / 70°F
Dewpoint
19°C / 66°F
Humidity
88%
Altimeter
30.15" Hg
Pressure
1021.02 hPa